Time;durP1;ratioP1;P1;durP2;ratioP2;P2;SDS_P1;SDS_P2;PMS_P1;PMS_P2;Temp;Humidity;BMP_temperature;BMP_pressure;BME280_temperature;BME280_humidity;BME280_pressure;Samples;Min_cycle;Max_cycle;Signal;HPM_P1;HPM_P2
2021/09/13 00:02:05;;;;;;;16.67;7.90;;;;;;;;;;4954876;29;20452;-74
2021/09/13 00:04:30;;;;;;;13.98;7.93;;;;;;;;;;4954391;28;20560;-74
2021/09/13 00:06:57;;;;;;;12.43;7.68;;;;;;;;;;4954878;28;20035;-75
2021/09/13 00:09:22;;;;;;;24.27;8.43;;;;;;;;;;4953867;28;20094;-74
2021/09/13 00:11:48;;;;;;;12.68;8.23;;;;;;;;;;4954797;28;20043;-74
2021/09/13 00:14:14;;;;;;;16.67;7.97;;;;;;;;;;4953047;28;20055;-74
2021/09/13 00:16:40;;;;;;;42.83;8.50;;;;;;;;;;4954689;28;20066;-74
2021/09/13 00:19:06;;;;;;;16.73;7.57;;;;;;;;;;4954685;28;20027;-74
2021/09/13 00:21:33;;;;;;;28.27;7.70;;;;;;;;;;4954624;28;20482;-74
2021/09/13 00:23:59;;;;;;;9.10;7.43;;;;;;;;;;4954596;28;20406;-75
2021/09/13 00:26:25;;;;;;;10.20;7.38;;;;;;;;;;4954811;29;20159;-75
2021/09/13 00:28:50;;;;;;;8.48;6.60;;;;;;;;;;4954519;28;20046;-74
2021/09/13 00:31:16;;;;;;;16.75;9.18;;;;;;;;;;4953267;29;20409;-75
2021/09/13 00:33:42;;;;;;;13.02;8.52;;;;;;;;;;4954631;28;20027;-75
2021/09/13 00:36:09;;;;;;;30.30;7.88;;;;;;;;;;4954557;28;20031;-74
2021/09/13 00:38:36;;;;;;;9.38;7.32;;;;;;;;;;4953980;28;20090;-75
2021/09/13 00:41:06;;;;;;;14.10;7.40;;;;;;;;;;4954475;28;20062;-75
2021/09/13 00:43:33;;;;;;;13.48;8.30;;;;;;;;;;4953288;29;20035;-75
2021/09/13 00:45:59;;;;;;;11.63;7.80;;;;;;;;;;4954591;28;20031;-75
2021/09/13 00:48:24;;;;;;;20.13;7.68;;;;;;;;;;4958170;28;20032;-74
2021/09/13 00:50:50;;;;;;;24.75;7.88;;;;;;;;;;4957778;28;20035;-74
2021/09/13 00:53:16;;;;;;;14.38;8.05;;;;;;;;;;4957907;28;20034;-74
2021/09/13 00:55:42;;;;;;;17.40;9.02;;;;;;;;;;4956702;29;20126;-75
2021/09/13 00:58:08;;;;;;;28.98;8.25;;;;;;;;;;4956796;29;20027;-74
2021/09/13 01:00:34;;;;;;;11.65;8.20;;;;;;;;;;4957733;28;20034;-74
2021/09/13 01:03:00;;;;;;;11.13;8.15;;;;;;;;;;4957857;28;20035;-74
2021/09/13 01:05:25;;;;;;;13.10;8.35;;;;;;;;;;4956389;29;20075;-74
2021/09/13 01:07:52;;;;;;;13.02;8.55;;;;;;;;;;4956229;29;20487;-74
2021/09/13 01:10:20;;;;;;;13.73;8.38;;;;;;;;;;4956509;28;20049;-74
2021/09/13 01:12:45;;;;;;;20.45;8.10;;;;;;;;;;4956376;29;20089;-74
2021/09/13 01:15:11;;;;;;;18.23;7.65;;;;;;;;;;4956378;28;20047;-74
2021/09/13 01:17:36;;;;;;;9.70;8.38;;;;;;;;;;4957540;29;20034;-74
2021/09/13 01:20:03;;;;;;;8.98;8.07;;;;;;;;;;4956192;28;20381;-74
2021/09/13 01:22:33;;;;;;;10.18;7.05;;;;;;;;;;4956016;29;20074;-74
2021/09/13 01:25:03;;;;;;;10.43;7.72;;;;;;;;;;4936354;29;20035;-74
2021/09/13 01:27:29;;;;;;;12.98;8.80;;;;;;;;;;4936458;29;20035;-74
2021/09/13 01:29:54;;;;;;;9.95;7.72;;;;;;;;;;4936708;29;20094;-74
2021/09/13 01:32:20;;;;;;;28.85;7.75;;;;;;;;;;4920929;29;20051;-74
2021/09/13 01:34:55;;;;;;;23.17;7.50;;;;;;;;;;4936643;29;20797;-74
2021/09/13 01:37:23;;;;;;;13.10;7.82;;;;;;;;;;4936759;29;20031;-74
2021/09/13 01:39:49;;;;;;;8.35;7.55;;;;;;;;;;4943105;29;20047;-74
2021/09/13 01:42:16;;;;;;;21.33;8.00;;;;;;;;;;4955804;29;20039;-74
2021/09/13 01:44:41;;;;;;;15.70;7.38;;;;;;;;;;4939654;29;20090;-74
2021/09/13 01:47:07;;;;;;;37.20;7.95;;;;;;;;;;4955955;29;20035;-74
2021/09/13 01:49:32;;;;;;;19.20;6.82;;;;;;;;;;4955746;28;20134;-74
2021/09/13 01:51:58;;;;;;;10.82;5.80;;;;;;;;;;4939648;29;20485;-74
2021/09/13 01:54:23;;;;;;;16.27;6.53;;;;;;;;;;4956730;29;20046;-74
2021/09/13 01:56:50;;;;;;;16.38;6.90;;;;;;;;;;4954916;28;20031;-74
2021/09/13 01:59:27;;;;;;;8.60;6.97;;;;;;;;;;4955774;28;20090;-77
2021/09/13 02:01:52;;;;;;;18.15;6.50;;;;;;;;;;4955512;29;20043;-75
2021/09/13 02:04:18;;;;;;;23.92;7.07;;;;;;;;;;4955410;29;20062;-74
2021/09/13 02:06:44;;;;;;;17.83;7.15;;;;;;;;;;4955686;29;20039;-74
2021/09/13 02:09:10;;;;;;;29.98;7.20;;;;;;;;;;4955011;28;20086;-74
2021/09/13 02:11:36;;;;;;;16.92;7.15;;;;;;;;;;4955489;29;20031;-75
2021/09/13 02:14:04;;;;;;;18.17;6.55;;;;;;;;;;4955181;29;20031;-74
2021/09/13 02:16:30;;;;;;;21.48;8.07;;;;;;;;;;4954593;28;20042;-74
2021/09/13 02:18:55;;;;;;;13.98;6.72;;;;;;;;;;4955280;28;20050;-75
2021/09/13 02:21:20;;;;;;;12.57;7.50;;;;;;;;;;4955286;28;20042;-75
2021/09/13 02:23:49;;;;;;;9.35;7.07;;;;;;;;;;4955149;29;20374;-75
2021/09/13 02:26:15;;;;;;;8.60;6.50;;;;;;;;;;4955175;29;20120;-74
2021/09/13 02:28:41;;;;;;;7.85;7.05;;;;;;;;;;4954846;28;20031;-75
2021/09/13 02:31:07;;;;;;;19.45;7.78;;;;;;;;;;4954456;29;20038;-74
2021/09/13 02:33:32;;;;;;;13.93;7.72;;;;;;;;;;4955901;29;20130;-75
2021/09/13 02:35:58;;;;;;;16.35;7.90;;;;;;;;;;4954997;28;20539;-75
2021/09/13 02:38:24;;;;;;;13.90;7.50;;;;;;;;;;4955562;28;20085;-75
2021/09/13 02:40:49;;;;;;;11.80;7.10;;;;;;;;;;4956626;28;20115;-79
2021/09/13 02:43:15;;;;;;;10.60;6.93;;;;;;;;;;4959304;28;20035;-81
2021/09/13 02:45:41;;;;;;;10.27;6.60;;;;;;;;;;4958069;29;20119;-79
2021/09/13 02:48:06;;;;;;;30.83;9.00;;;;;;;;;;4958607;28;20039;-79
2021/09/13 02:50:32;;;;;;;22.27;9.00;;;;;;;;;;4958001;28;20409;-77
2021/09/13 02:52:58;;;;;;;11.25;7.85;;;;;;;;;;4955683;29;20079;-78
2021/09/13 02:55:25;;;;;;;9.45;7.53;;;;;;;;;;4956650;28;20035;-78
2021/09/13 02:57:50;;;;;;;8.13;6.75;;;;;;;;;;4957041;29;20059;-79
2021/09/13 03:00:16;;;;;;;10.80;7.60;;;;;;;;;;4956322;28;20162;-79
2021/09/13 03:02:48;;;;;;;26.98;8.38;;;;;;;;;;4941526;29;20059;-79
2021/09/13 03:05:14;;;;;;;8.95;7.25;;;;;;;;;;4956156;28;20059;-79
2021/09/13 03:07:40;;;;;;;19.00;8.70;;;;;;;;;;4956559;29;20039;-79
2021/09/13 03:10:07;;;;;;;10.43;8.30;;;;;;;;;;4948210;28;20385;-79
2021/09/13 03:12:33;;;;;;;17.35;8.77;;;;;;;;;;4955827;28;20100;-79
2021/09/13 03:15:05;;;;;;;26.92;9.25;;;;;;;;;;4955945;29;20078;-79
2021/09/13 03:17:31;;;;;;;10.13;7.90;;;;;;;;;;4956310;28;20046;-79
2021/09/13 03:19:59;;;;;;;17.63;8.05;;;;;;;;;;4956070;28;20489;-79
2021/09/13 03:22:24;;;;;;;11.43;8.88;;;;;;;;;;4956366;29;20031;-79
2021/09/13 03:24:51;;;;;;;9.70;8.70;;;;;;;;;;4956454;29;20493;-79
2021/09/13 03:27:16;;;;;;;10.98;9.30;;;;;;;;;;4955995;29;20027;-79
2021/09/13 03:29:41;;;;;;;12.73;9.00;;;;;;;;;;4955862;28;20038;-79
2021/09/13 03:32:07;;;;;;;10.57;9.48;;;;;;;;;;4955906;28;20509;-79
2021/09/13 03:34:33;;;;;;;12.50;9.70;;;;;;;;;;4940902;29;20090;-80
2021/09/13 03:37:01;;;;;;;15.77;10.50;;;;;;;;;;4959183;29;20049;-79
2021/09/13 03:39:27;;;;;;;14.18;9.63;;;;;;;;;;4958683;28;20038;-79
2021/09/13 03:41:53;;;;;;;11.65;9.43;;;;;;;;;;4957262;29;20043;-79
2021/09/13 03:44:20;;;;;;;12.98;9.00;;;;;;;;;;4956807;28;20635;-79
2021/09/13 03:46:46;;;;;;;18.42;9.77;;;;;;;;;;4959062;29;20035;-79
2021/09/13 03:49:35;;;;;;;16.02;10.05;;;;;;;;;;4957976;28;20082;-79
2021/09/13 03:52:00;;;;;;;10.68;9.15;;;;;;;;;;4958056;29;20453;-79
2021/09/13 03:54:26;;;;;;;13.40;9.38;;;;;;;;;;4959549;28;20046;-79
2021/09/13 03:56:51;;;;;;;11.02;9.25;;;;;;;;;;4957702;29;20043;-79
2021/09/13 03:59:19;;;;;;;14.10;9.60;;;;;;;;;;4957155;28;20038;-79
2021/09/13 04:01:46;;;;;;;23.23;10.20;;;;;;;;;;4958741;28;20035;-79
2021/09/13 04:04:13;;;;;;;12.18;9.38;;;;;;;;;;4957618;28;20027;-79
2021/09/13 04:06:43;;;;;;;24.52;9.45;;;;;;;;;;4957166;28;20031;-79
2021/09/13 04:12:08;;;;;;;11.45;10.25;;;;;;;;;;4957332;29;20042;-79
2021/09/13 04:15:04;;;;;;;45.75;11.02;;;;;;;;;;4956561;28;20028;-79
2021/09/13 04:17:50;;;;;;;28.13;9.85;;;;;;;;;;4958033;29;20046;-79
2021/09/13 04:20:33;;;;;;;14.00;9.82;;;;;;;;;;4957908;28;20086;-79
2021/09/13 04:23:14;;;;;;;12.30;10.15;;;;;;;;;;4960314;29;20119;-79
2021/09/13 04:26:12;;;;;;;17.67;11.02;;;;;;;;;;4962606;28;20070;-79
2021/09/13 04:29:06;;;;;;;9.93;8.85;;;;;;;;;;4926567;29;20047;-79
2021/09/13 04:32:01;;;;;;;10.25;9.02;;;;;;;;;;4926698;28;20533;-79
2021/09/13 04:35:05;;;;;;;14.55;9.48;;;;;;;;;;4921953;29;20048;-79
2021/09/13 04:37:46;;;;;;;13.68;10.07;;;;;;;;;;4908966;29;20474;-79
2021/09/13 04:40:30;;;;;;;15.63;9.13;;;;;;;;;;4936669;29;20091;-79
2021/09/13 04:43:15;;;;;;;10.87;9.77;;;;;;;;;;4943190;29;20053;-79
2021/09/13 04:45:59;;;;;;;13.10;9.57;;;;;;;;;;4941474;29;20102;-79
2021/09/13 04:48:50;;;;;;;11.27;9.50;;;;;;;;;;4956883;29;20032;-79
2021/09/13 04:51:36;;;;;;;11.30;10.10;;;;;;;;;;4956746;28;20087;-79
2021/09/13 04:54:12;;;;;;;14.50;9.77;;;;;;;;;;4941257;29;20131;-79
2021/09/13 04:56:38;;;;;;;11.35;10.15;;;;;;;;;;4956695;28;20063;-79
2021/09/13 04:59:05;;;;;;;19.00;10.50;;;;;;;;;;4956527;29;20558;-79
2021/09/13 05:01:30;;;;;;;11.95;10.70;;;;;;;;;;4941595;29;20074;-79
2021/09/13 05:03:55;;;;;;;11.18;9.40;;;;;;;;;;4956415;28;20367;-79
2021/09/13 05:06:21;;;;;;;11.27;9.43;;;;;;;;;;4941161;29;20082;-79
2021/09/13 05:08:48;;;;;;;11.43;10.23;;;;;;;;;;4971003;28;20078;-79
2021/09/13 05:11:15;;;;;;;12.30;10.95;;;;;;;;;;4959853;29;20061;-79
2021/09/13 05:13:41;;;;;;;12.50;10.02;;;;;;;;;;4958777;28;20036;-79
2021/09/13 05:16:06;;;;;;;11.43;10.20;;;;;;;;;;4961613;28;20093;-79
2021/09/13 05:18:37;;;;;;;14.50;12.25;;;;;;;;;;4960534;28;20043;-79
2021/09/13 05:21:04;;;;;;;13.45;10.27;;;;;;;;;;4960594;29;20035;-79
2021/09/13 05:23:31;;;;;;;12.40;10.55;;;;;;;;;;4959805;29;20102;-79
2021/09/13 05:25:57;;;;;;;13.00;10.68;;;;;;;;;;4960139;29;20039;-79
2021/09/13 05:28:22;;;;;;;14.80;11.38;;;;;;;;;;4960220;28;20126;-79
2021/09/13 05:30:49;;;;;;;14.55;10.05;;;;;;;;;;4959683;28;20114;-79
2021/09/13 05:33:16;;;;;;;19.48;11.90;;;;;;;;;;4959017;28;20118;-76
2021/09/13 05:35:42;;;;;;;12.27;11.05;;;;;;;;;;4958057;28;20039;-77
2021/09/13 05:38:11;;;;;;;14.40;11.07;;;;;;;;;;4940744;29;20544;-75
2021/09/13 05:40:39;;;;;;;13.52;10.52;;;;;;;;;;4955892;28;20032;-75
2021/09/13 05:43:07;;;;;;;13.43;11.20;;;;;;;;;;4940274;29;20035;-75
2021/09/13 05:45:34;;;;;;;12.70;11.07;;;;;;;;;;4940046;29;20035;-76
2021/09/13 05:48:00;;;;;;;16.63;11.02;;;;;;;;;;4956056;29;20093;-78
2021/09/13 05:50:26;;;;;;;12.77;11.00;;;;;;;;;;4955846;28;20541;-76
2021/09/13 05:52:51;;;;;;;14.02;11.55;;;;;;;;;;4955711;29;20389;-76
2021/09/13 05:55:20;;;;;;;14.40;11.82;;;;;;;;;;4955652;29;20122;-75
2021/09/13 05:57:48;;;;;;;10.63;9.52;;;;;;;;;;4955738;29;20144;-76
2021/09/13 06:00:14;;;;;;;11.02;9.93;;;;;;;;;;4955115;28;20148;-77
2021/09/13 06:02:39;;;;;;;15.57;9.88;;;;;;;;;;4957415;28;20046;-77
2021/09/13 06:05:14;;;;;;;11.50;10.30;;;;;;;;;;4956226;29;20401;-76
2021/09/13 06:07:40;;;;;;;11.25;9.10;;;;;;;;;;4955350;29;20074;-75
2021/09/13 06:10:09;;;;;;;13.80;10.27;;;;;;;;;;4956564;28;20027;-76
2021/09/13 06:12:38;;;;;;;12.63;10.73;;;;;;;;;;4956150;29;20543;-77
2021/09/13 06:15:05;;;;;;;11.15;9.93;;;;;;;;;;4957666;28;20042;-78
2021/09/13 06:17:34;;;;;;;12.30;9.15;;;;;;;;;;4958715;28;20037;-79
2021/09/13 06:19:59;;;;;;;11.98;9.68;;;;;;;;;;4957605;28;20110;-78
2021/09/13 06:22:25;;;;;;;10.30;9.30;;;;;;;;;;4956238;29;20134;-78
2021/09/13 06:24:53;;;;;;;14.40;9.35;;;;;;;;;;4943480;29;20019;-80
2021/09/13 06:27:19;;;;;;;10.18;9.18;;;;;;;;;;4959367;29;20039;-78
2021/09/13 06:29:47;;;;;;;11.70;9.13;;;;;;;;;;4961613;28;20721;-78
2021/09/13 06:32:13;;;;;;;13.20;9.38;;;;;;;;;;4961800;29;20043;-78
2021/09/13 06:34:38;;;;;;;10.43;8.90;;;;;;;;;;4962030;28;20038;-78
2021/09/13 06:37:04;;;;;;;9.02;8.13;;;;;;;;;;4945399;29;20397;-78
2021/09/13 06:39:29;;;;;;;8.65;7.75;;;;;;;;;;4960717;28;20478;-78
2021/09/13 06:41:55;;;;;;;11.98;7.78;;;;;;;;;;4961809;29;20050;-78
2021/09/13 06:44:25;;;;;;;10.60;8.25;;;;;;;;;;4960309;28;20408;-78
2021/09/13 06:49:31;;;;;;;10.13;8.60;;;;;;;;;;4970243;28;20536;-79
2021/09/13 06:51:57;;;;;;;10.80;9.05;;;;;;;;;;4968364;29;20042;-78
2021/09/13 06:54:22;;;;;;;9.85;8.85;;;;;;;;;;4967165;28;20035;-78
2021/09/13 06:56:48;;;;;;;9.35;7.97;;;;;;;;;;4965756;28;20027;-82
2021/09/13 06:59:15;;;;;;;12.07;9.07;;;;;;;;;;4958864;28;20429;-79
2021/09/13 07:01:40;;;;;;;8.25;7.40;;;;;;;;;;4958621;28;20039;-80
2021/09/13 07:04:06;;;;;;;9.95;8.93;;;;;;;;;;4958516;29;20045;-79
2021/09/13 07:06:32;;;;;;;10.18;8.80;;;;;;;;;;4958476;28;20437;-78
2021/09/13 07:08:57;;;;;;;12.50;8.13;;;;;;;;;;4955855;28;20112;-79
2021/09/13 07:11:24;;;;;;;9.77;8.02;;;;;;;;;;4955709;28;20027;-78
2021/09/13 07:13:51;;;;;;;12.57;7.45;;;;;;;;;;4955909;29;20038;-76
2021/09/13 07:16:17;;;;;;;9.48;7.95;;;;;;;;;;4955027;28;20027;-75
2021/09/13 07:18:43;;;;;;;8.95;7.88;;;;;;;;;;4955146;28;20035;-75
2021/09/13 07:21:09;;;;;;;9.55;8.00;;;;;;;;;;4955100;28;20472;-75
2021/09/13 07:23:34;;;;;;;12.95;9.07;;;;;;;;;;4955252;29;20081;-75
2021/09/13 07:26:00;;;;;;;13.82;8.90;;;;;;;;;;4955339;28;20128;-75
2021/09/13 07:28:25;;;;;;;10.18;7.63;;;;;;;;;;4953718;29;20035;-75
2021/09/13 07:30:51;;;;;;;10.65;7.97;;;;;;;;;;4956489;28;20053;-77
2021/09/13 07:33:16;;;;;;;17.05;10.57;;;;;;;;;;4954360;29;20062;-76
2021/09/13 07:35:42;;;;;;;15.70;10.35;;;;;;;;;;4953501;28;20043;-75
2021/09/13 07:38:07;;;;;;;20.75;11.57;;;;;;;;;;4954936;29;20082;-75
2021/09/13 07:40:33;;;;;;;19.33;13.02;;;;;;;;;;4954529;28;20121;-76
2021/09/13 07:42:58;;;;;;;15.15;10.75;;;;;;;;;;4955329;28;20043;-78
2021/09/13 07:45:24;;;;;;;23.55;12.52;;;;;;;;;;4955268;29;20042;-76
2021/09/13 07:47:51;;;;;;;19.10;13.60;;;;;;;;;;4954975;28;20039;-75
2021/09/13 07:50:17;;;;;;;20.85;15.05;;;;;;;;;;4954086;28;20050;-76
2021/09/13 07:52:43;;;;;;;26.08;16.23;;;;;;;;;;4955039;28;20031;-76
2021/09/13 07:55:08;;;;;;;21.92;15.00;;;;;;;;;;4956494;28;20449;-76
2021/09/13 07:57:35;;;;;;;22.50;15.35;;;;;;;;;;4960132;28;20470;-76
2021/09/13 08:00:03;;;;;;;23.35;15.80;;;;;;;;;;4961502;28;20041;-76
2021/09/13 08:02:38;;;;;;;26.40;16.73;;;;;;;;;;4961413;28;20409;-76
2021/09/13 08:05:05;;;;;;;22.42;16.90;;;;;;;;;;4960857;29;20035;-76
2021/09/13 08:07:30;;;;;;;25.77;18.00;;;;;;;;;;4960794;28;20046;-79
2021/09/13 08:09:55;;;;;;;24.10;17.20;;;;;;;;;;4961540;28;20054;-76
2021/09/13 08:12:22;;;;;;;25.83;18.45;;;;;;;;;;4961467;28;20070;-76
2021/09/13 08:14:47;;;;;;;24.50;18.55;;;;;;;;;;4959689;28;20063;-75
2021/09/13 08:17:13;;;;;;;26.77;18.50;;;;;;;;;;4961218;28;20046;-76
2021/09/13 08:19:40;;;;;;;30.80;18.15;;;;;;;;;;4962670;28;20039;-77
2021/09/13 08:22:08;;;;;;;23.90;17.92;;;;;;;;;;4960330;29;20051;-76
2021/09/13 08:24:35;;;;;;;27.27;17.95;;;;;;;;;;4948165;28;20083;-76
2021/09/13 08:27:11;;;;;;;22.85;16.90;;;;;;;;;;4965343;28;20039;-83
2021/09/13 08:29:36;;;;;;;21.95;17.33;;;;;;;;;;4971261;28;20039;-78
2021/09/13 08:32:02;;;;;;;23.08;17.10;;;;;;;;;;4960296;29;20057;-80
2021/09/13 08:34:27;;;;;;;25.95;17.35;;;;;;;;;;4963465;28;20144;-75
2021/09/13 08:36:53;;;;;;;23.85;15.48;;;;;;;;;;4961666;28;20362;-76
2021/09/13 08:39:19;;;;;;;21.95;16.17;;;;;;;;;;4949083;28;20077;-75
2021/09/13 08:41:45;;;;;;;21.65;16.02;;;;;;;;;;4944169;29;20035;-76
2021/09/13 08:44:13;;;;;;;18.15;14.73;;;;;;;;;;4942044;29;20577;-77
2021/09/13 08:46:47;;;;;;;20.60;14.68;;;;;;;;;;4926438;29;20126;-77
2021/09/13 08:49:27;;;;;;;20.27;14.55;;;;;;;;;;4926820;29;20039;-78
2021/09/13 08:51:53;;;;;;;18.45;14.75;;;;;;;;;;4940926;29;20039;-77
2021/09/13 08:54:18;;;;;;;19.80;13.75;;;;;;;;;;4942448;29;20043;-77
2021/09/13 08:56:47;;;;;;;18.10;14.48;;;;;;;;;;4940805;29;20124;-76
2021/09/13 08:59:15;;;;;;;16.45;13.70;;;;;;;;;;4941273;29;20397;-76
2021/09/13 09:01:41;;;;;;;16.48;12.85;;;;;;;;;;4941348;29;20043;-77
2021/09/13 09:04:08;;;;;;;19.33;14.95;;;;;;;;;;4942305;29;20036;-77
2021/09/13 09:06:42;;;;;;;15.73;12.57;;;;;;;;;;4941215;29;20580;-77
2021/09/13 09:09:11;;;;;;;17.85;12.82;;;;;;;;;;4948360;28;20043;-78
2021/09/13 09:11:56;;;;;;;15.05;12.73;;;;;;;;;;4958083;28;20034;-77
2021/09/13 09:14:35;;;;;;;15.25;12.20;;;;;;;;;;4956239;29;20043;-77
2021/09/13 09:17:08;;;;;;;16.90;11.32;;;;;;;;;;4956467;29;20063;-77
2021/09/13 09:19:34;;;;;;;13.93;9.82;;;;;;;;;;4957694;28;20074;-77
2021/09/13 09:22:20;;;;;;;14.93;10.93;;;;;;;;;;4957690;28;20401;-77
2021/09/13 09:24:46;;;;;;;11.50;9.25;;;;;;;;;;4957719;28;20034;-77
2021/09/13 09:27:12;;;;;;;12.43;8.98;;;;;;;;;;4957574;28;20038;-77
2021/09/13 09:29:38;;;;;;;12.10;9.43;;;;;;;;;;4956168;28;20031;-78
2021/09/13 09:32:04;;;;;;;11.55;8.52;;;;;;;;;;4957883;28;20086;-80
2021/09/13 09:34:33;;;;;;;11.88;8.05;;;;;;;;;;4956336;29;20141;-79
2021/09/13 09:37:03;;;;;;;12.82;8.65;;;;;;;;;;4958207;28;20537;-78
2021/09/13 09:39:52;;;;;;;13.02;8.25;;;;;;;;;;4956066;28;20433;-77
2021/09/13 09:42:35;;;;;;;10.23;7.63;;;;;;;;;;4957397;28;20416;-77
2021/09/13 09:45:25;;;;;;;10.20;7.63;;;;;;;;;;4957189;28;20036;-77
2021/09/13 09:48:07;;;;;;;9.88;6.38;;;;;;;;;;4957391;28;20493;-77
2021/09/13 09:50:34;;;;;;;14.48;8.68;;;;;;;;;;4957160;28;20541;-77
2021/09/13 09:53:16;;;;;;;11.63;7.55;;;;;;;;;;4956461;28;20039;-79
2021/09/13 09:55:43;;;;;;;9.32;7.55;;;;;;;;;;4957084;29;20039;-78
2021/09/13 09:58:11;;;;;;;9.00;7.25;;;;;;;;;;4956995;28;20434;-77
2021/09/13 10:00:38;;;;;;;8.60;5.90;;;;;;;;;;4956814;28;20043;-77
2021/09/13 10:03:04;;;;;;;8.43;5.50;;;;;;;;;;4956897;28;20039;-77
2021/09/13 10:05:31;;;;;;;9.15;4.97;;;;;;;;;;4957056;28;20511;-77
2021/09/13 10:07:57;;;;;;;11.88;5.40;;;;;;;;;;4947501;29;20048;-77
2021/09/13 10:10:29;;;;;;;6.28;4.70;;;;;;;;;;4937549;29;20044;-78
2021/09/13 10:12:55;;;;;;;5.93;4.10;;;;;;;;;;4941894;28;20393;-77
2021/09/13 10:15:20;;;;;;;6.75;4.38;;;;;;;;;;4956874;28;20039;-77
2021/09/13 10:17:46;;;;;;;10.55;4.38;;;;;;;;;;4955354;28;20054;-77
2021/09/13 10:20:13;;;;;;;7.47;3.65;;;;;;;;;;4956295;28;20039;-77
2021/09/13 10:22:45;;;;;;;5.15;3.90;;;;;;;;;;4957458;28;20039;-77
2021/09/13 10:25:11;;;;;;;11.73;3.63;;;;;;;;;;4948112;28;20044;-77
2021/09/13 10:27:39;;;;;;;8.40;3.38;;;;;;;;;;4940348;29;20039;-80
2021/09/13 10:30:23;;;;;;;4.32;2.60;;;;;;;;;;4956447;28;20377;-82
2021/09/13 10:32:51;;;;;;;6.90;3.10;;;;;;;;;;4960282;28;20055;-80
2021/09/13 10:35:18;;;;;;;6.43;2.40;;;;;;;;;;4957894;28;20040;-80
2021/09/13 10:37:54;;;;;;;5.72;2.90;;;;;;;;;;4960436;28;20042;-80
2021/09/13 10:40:29;;;;;;;6.03;2.70;;;;;;;;;;4952112;29;20051;-78
2021/09/13 10:42:59;;;;;;;4.63;2.22;;;;;;;;;;4958121;28;20393;-80
2021/09/13 10:45:38;;;;;;;5.85;2.10;;;;;;;;;;4957708;29;20039;-80
2021/09/13 10:48:22;;;;;;;5.97;2.38;;;;;;;;;;4957918;29;20047;-80
2021/09/13 10:50:49;;;;;;;3.17;1.65;;;;;;;;;;4959359;28;20087;-79
2021/09/13 10:53:18;;;;;;;4.68;1.90;;;;;;;;;;4960332;28;20043;-80
2021/09/13 10:55:50;;;;;;;8.90;1.92;;;;;;;;;;4959838;28;20441;-79
2021/09/13 10:58:17;;;;;;;8.43;1.70;;;;;;;;;;4959439;28;20038;-79
2021/09/13 11:00:43;;;;;;;4.35;1.90;;;;;;;;;;4958535;28;20481;-80
2021/09/13 11:03:32;;;;;;;5.65;1.70;;;;;;;;;;4958668;29;20050;-80
2021/09/13 11:06:17;;;;;;;3.85;1.50;;;;;;;;;;4958854;29;20139;-79
2021/09/13 11:08:59;;;;;;;1.88;1.20;;;;;;;;;;4956763;28;20027;-79
2021/09/13 11:11:27;;;;;;;2.45;1.10;;;;;;;;;;4957710;29;20062;-79
2021/09/13 11:14:13;;;;;;;2.35;1.00;;;;;;;;;;4959039;29;20086;-79
2021/09/13 11:16:47;;;;;;;2.30;0.85;;;;;;;;;;4958427;28;20051;-80
2021/09/13 11:19:16;;;;;;;2.40;1.10;;;;;;;;;;4960238;28;20117;-81
2021/09/13 11:21:46;;;;;;;3.42;1.13;;;;;;;;;;4961961;28;20035;-80
2021/09/13 11:24:20;;;;;;;2.40;0.85;;;;;;;;;;4962340;28;20444;-81
2021/09/13 11:26:54;;;;;;;2.05;1.00;;;;;;;;;;4961502;29;20165;-80
2021/09/13 11:29:24;;;;;;;2.72;1.00;;;;;;;;;;4960354;28;20039;-80
2021/09/13 11:31:59;;;;;;;1.48;0.93;;;;;;;;;;4960608;28;20047;-81
2021/09/13 11:34:39;;;;;;;2.67;1.20;;;;;;;;;;4961130;28;20031;-80
2021/09/13 11:37:10;;;;;;;1.52;1.00;;;;;;;;;;4960626;28;20038;-81
2021/09/13 11:39:42;;;;;;;2.40;1.05;;;;;;;;;;4979532;28;20027;-82
2021/09/13 11:42:16;;;;;;;4.70;1.38;;;;;;;;;;4979837;28;20121;-80
2021/09/13 11:45:07;;;;;;;3.78;0.98;;;;;;;;;;4978616;28;20031;-80
2021/09/13 11:47:35;;;;;;;2.55;1.10;;;;;;;;;;4978621;28;20035;-81
2021/09/13 11:50:05;;;;;;;3.67;1.02;;;;;;;;;;4979644;28;20041;-79
2021/09/13 11:52:34;;;;;;;1.55;1.15;;;;;;;;;;4978309;28;20121;-80
2021/09/13 11:55:12;;;;;;;2.28;1.15;;;;;;;;;;4975516;28;20046;-82
2021/09/13 11:57:44;;;;;;;4.25;1.27;;;;;;;;;;4975906;28;20034;-79
2021/09/13 12:00:14;;;;;;;3.00;1.58;;;;;;;;;;4976428;28;20031;-81
2021/09/13 12:02:45;;;;;;;2.72;1.45;;;;;;;;;;4976356;28;20057;-81
2021/09/13 12:05:14;;;;;;;2.70;1.30;;;;;;;;;;4979018;28;20035;-80
2021/09/13 12:07:40;;;;;;;2.10;1.15;;;;;;;;;;4975478;28;20044;-81
2021/09/13 12:10:07;;;;;;;1.90;1.02;;;;;;;;;;4959511;28;20058;-81
2021/09/13 12:12:35;;;;;;;1.70;1.60;;;;;;;;;;4959244;28;20046;-80
2021/09/13 12:15:05;;;;;;;1.23;1.00;;;;;;;;;;4954992;28;20063;-81
2021/09/13 12:17:39;;;;;;;3.30;1.20;;;;;;;;;;4937988;29;20049;-81
2021/09/13 12:20:13;;;;;;;1.58;1.15;;;;;;;;;;4938631;29;20032;-80
2021/09/13 12:22:38;;;;;;;1.70;1.00;;;;;;;;;;4939593;29;20048;-81
2021/09/13 12:25:18;;;;;;;2.10;1.20;;;;;;;;;;4939919;29;20057;-80
2021/09/13 12:27:49;;;;;;;2.05;0.98;;;;;;;;;;4939514;29;20406;-81
2021/09/13 12:30:21;;;;;;;1.13;0.88;;;;;;;;;;4940108;29;20047;-80
2021/09/13 12:32:57;;;;;;;2.63;1.20;;;;;;;;;;4938951;29;20051;-81
2021/09/13 12:35:32;;;;;;;1.42;1.02;;;;;;;;;;4939938;29;20036;-80
2021/09/13 12:37:58;;;;;;;4.25;1.65;;;;;;;;;;4938187;29;20039;-80
2021/09/13 12:40:23;;;;;;;2.22;1.20;;;;;;;;;;4958524;28;20035;-80
2021/09/13 12:43:01;;;;;;;2.55;1.27;;;;;;;;;;4960035;28;20042;-80
2021/09/13 12:45:30;;;;;;;1.17;1.08;;;;;;;;;;4962236;28;20039;-80
2021/09/13 12:48:04;;;;;;;1.23;1.00;;;;;;;;;;4961500;28;20032;-80
2021/09/13 12:50:41;;;;;;;12.85;7.50;;;;;;;;;;4963295;28;20067;-81
2021/09/13 12:53:29;;;;;;;9.68;6.28;;;;;;;;;;4962870;28;20039;-81
2021/09/13 12:56:00;;;;;;;2.90;1.75;;;;;;;;;;4962854;28;20054;-80
2021/09/13 12:58:33;;;;;;;2.97;1.10;;;;;;;;;;4963103;28;20038;-81
2021/09/13 13:01:04;;;;;;;2.05;1.10;;;;;;;;;;4963416;28;20077;-82
2021/09/13 13:03:31;;;;;;;5.25;1.13;;;;;;;;;;4963399;28;20511;-81
2021/09/13 13:05:57;;;;;;;3.83;1.20;;;;;;;;;;4961890;29;20035;-80
2021/09/13 13:08:26;;;;;;;4.35;1.30;;;;;;;;;;4961930;28;20039;-80
2021/09/13 13:10:53;;;;;;;2.22;1.20;;;;;;;;;;4943052;29;20035;-81
2021/09/13 13:13:19;;;;;;;1.90;0.80;;;;;;;;;;4943477;29;20086;-80
2021/09/13 13:15:46;;;;;;;3.33;1.10;;;;;;;;;;4942824;29;20035;-81
2021/09/13 13:18:19;;;;;;;1.90;0.88;;;;;;;;;;4943324;29;20076;-80
2021/09/13 13:20:46;;;;;;;1.60;0.90;;;;;;;;;;4943268;29;20043;-80
2021/09/13 13:23:12;;;;;;;2.72;1.00;;;;;;;;;;4943456;29;20054;-81
2021/09/13 13:25:43;;;;;;;3.78;1.25;;;;;;;;;;4941991;29;20046;-81
2021/09/13 13:28:09;;;;;;;1.35;0.90;;;;;;;;;;4943889;29;20493;-81
2021/09/13 13:30:38;;;;;;;2.05;0.90;;;;;;;;;;4943754;29;20039;-81
2021/09/13 13:33:06;;;;;;;1.10;1.00;;;;;;;;;;4943313;29;20052;-80
2021/09/13 13:35:36;;;;;;;4.35;1.05;;;;;;;;;;4942019;29;20043;-80
2021/09/13 13:38:03;;;;;;;2.85;1.00;;;;;;;;;;4943027;29;20070;-80
2021/09/13 13:40:29;;;;;;;1.70;0.90;;;;;;;;;;4954387;29;20046;-80
2021/09/13 13:42:55;;;;;;;1.80;0.88;;;;;;;;;;4962458;28;20035;-83
2021/09/13 13:45:21;;;;;;;5.25;1.02;;;;;;;;;;4961406;28;20117;-80
2021/09/13 13:47:46;;;;;;;2.40;1.40;;;;;;;;;;4960954;29;20029;-79
2021/09/13 13:50:13;;;;;;;3.28;1.20;;;;;;;;;;4961698;28;20047;-80
2021/09/13 13:52:40;;;;;;;4.43;1.00;;;;;;;;;;4961244;28;20126;-80
2021/09/13 13:55:06;;;;;;;1.85;1.10;;;;;;;;;;4961979;29;20041;-79
2021/09/13 13:57:32;;;;;;;1.88;1.27;;;;;;;;;;4961441;28;20548;-79
2021/09/13 13:59:57;;;;;;;2.28;1.17;;;;;;;;;;4959021;28;20035;-79
2021/09/13 14:02:23;;;;;;;1.55;0.95;;;;;;;;;;4960178;28;20043;-79
2021/09/13 14:04:49;;;;;;;3.85;2.97;;;;;;;;;;4960505;28;20050;-79
2021/09/13 14:07:14;;;;;;;2.80;1.80;;;;;;;;;;4959542;29;20047;-79
2021/09/13 14:09:40;;;;;;;1.73;1.20;;;;;;;;;;4965120;28;20047;-80
2021/09/13 14:12:06;;;;;;;1.50;0.98;;;;;;;;;;4980141;28;20473;-79
2021/09/13 14:14:31;;;;;;;1.30;1.10;;;;;;;;;;4979770;28;20041;-79
2021/09/13 14:16:57;;;;;;;9.23;1.45;;;;;;;;;;4977512;28;20481;-79
2021/09/13 14:19:22;;;;;;;3.03;0.85;;;;;;;;;;4961906;28;20031;-79
2021/09/13 14:21:47;;;;;;;3.35;1.38;;;;;;;;;;4958607;28;20057;-79
2021/09/13 14:24:13;;;;;;;3.30;1.35;;;;;;;;;;4958036;29;20043;-79
2021/09/13 14:26:38;;;;;;;4.70;1.13;;;;;;;;;;4959802;28;20035;-79
2021/09/13 14:29:04;;;;;;;2.08;1.30;;;;;;;;;;4959761;28;20042;-79
2021/09/13 14:31:30;;;;;;;2.22;1.20;;;;;;;;;;4959687;28;20517;-80
2021/09/13 14:33:56;;;;;;;4.00;1.20;;;;;;;;;;4959366;29;20035;-81
2021/09/13 14:36:21;;;;;;;2.90;1.00;;;;;;;;;;4963480;28;20103;-81
2021/09/13 14:38:47;;;;;;;2.63;1.00;;;;;;;;;;4960233;28;20153;-78
2021/09/13 14:41:12;;;;;;;2.17;1.15;;;;;;;;;;4958907;29;20110;-79
2021/09/13 14:43:37;;;;;;;1.25;1.10;;;;;;;;;;4959442;28;20050;-80
2021/09/13 14:46:03;;;;;;;3.53;1.27;;;;;;;;;;4958841;29;20027;-82
2021/09/13 14:48:29;;;;;;;2.53;1.20;;;;;;;;;;4960637;28;20039;-80
2021/09/13 14:50:55;;;;;;;3.97;1.20;;;;;;;;;;4960650;28;20054;-81